Time;durP1;ratioP1;P1;durP2;ratioP2;P2;SDS_P1;SDS_P2;PMS_P1;PMS_P2;Temp;Humidity;BMP_temperature;BMP_pressure;BME280_temperature;BME280_humidity;BME280_pressure;Samples;Min_cycle;Max_cycle;Signal;HPM_P1;HPM_P2
2021/07/26 00:01:31;;;;;;;10.83;8.68;;;;;;;20.15;72.09;96335.45;128031;1092;25118;-89
2021/07/26 00:04:02;;;;;;;12.58;9.43;;;;;;;19.94;72.57;96348.34;128072;1092;25050;-90
2021/07/26 00:06:35;;;;;;;10.88;9.18;;;;;;;19.89;73.49;96355.89;128057;1093;25900;-89
2021/07/26 00:09:07;;;;;;;12.48;9.65;;;;;;;19.91;73.91;96346.34;128054;1093;23907;-90
2021/07/26 00:11:38;;;;;;;13.20;10.25;;;;;;;19.96;74.32;96342.61;128048;1092;24958;-90
2021/07/26 00:14:10;;;;;;;12.75;9.75;;;;;;;19.96;74.42;96329.94;128141;1092;24076;-89
2021/07/26 00:16:41;;;;;;;12.08;9.75;;;;;;;19.94;74.53;96334.89;128114;1093;23044;-91
2021/07/26 00:19:12;;;;;;;13.20;9.88;;;;;;;19.83;74.50;96342.67;127881;1092;23799;-88
2021/07/26 00:21:44;;;;;;;13.93;10.23;;;;;;;19.71;74.85;96321.23;128157;1092;25672;-90
2021/07/26 00:24:15;;;;;;;14.73;10.85;;;;;;;19.68;75.34;96324.59;128058;1092;23010;-90
2021/07/26 00:26:47;;;;;;;13.48;10.63;;;;;;;19.58;76.76;96337.77;127827;1091;25240;-89
2021/07/26 00:29:18;;;;;;;14.13;10.85;;;;;;;19.34;77.23;96339.38;127864;1093;25591;-90
2021/07/26 00:31:50;;;;;;;15.40;11.15;;;;;;;19.21;77.77;96338.63;128115;1091;23376;-90
2021/07/26 00:34:23;;;;;;;13.85;9.55;;;;;;;19.17;78.62;96378.06;128045;1092;23044;-90
2021/07/26 00:36:56;;;;;;;13.80;10.70;;;;;;;19.12;79.43;96420.48;128096;1092;27699;-90
2021/07/26 00:39:29;;;;;;;15.03;11.33;;;;;;;19.02;80.39;96455.89;128080;1092;23458;-90
2021/07/26 00:42:01;;;;;;;16.35;10.78;;;;;;;18.99;82.73;96462.70;128118;1093;27828;-94
2021/07/26 00:44:34;;;;;;;10.93;9.13;;;;;;;18.86;84.06;96448.50;128186;1091;37238;-93
2021/07/26 00:51:46;;;;;;;13.33;9.60;;;;;;;18.66;85.89;96498.48;128125;1092;26998;-92
2021/07/26 00:54:20;;;;;;;14.90;10.78;;;;;;;18.59;84.79;96529.66;128092;1092;25534;-91
2021/07/26 00:56:53;;;;;;;13.63;10.60;;;;;;;18.57;84.45;96516.55;128015;1093;25035;-90
2021/07/26 00:59:26;;;;;;;9.13;7.05;;;;;;;18.54;84.31;96530.64;128057;1092;25375;-92
2021/07/26 01:01:58;;;;;;;6.05;4.25;;;;;;;18.41;84.36;96518.28;128032;1092;27986;-91
2021/07/26 01:04:36;;;;;;;5.17;3.77;;;;;;;18.29;84.38;96508.29;128090;1093;24774;-92
2021/07/26 01:07:08;;;;;;;3.68;2.73;;;;;;;18.20;83.70;96499.55;128069;1093;28948;-90
2021/07/26 01:09:39;;;;;;;3.70;2.05;;;;;;;18.15;83.54;96474.80;128218;1092;24518;-90
2021/07/26 01:12:11;;;;;;;2.68;1.50;;;;;;;18.12;83.60;96452.11;128141;1092;30221;-91
2021/07/26 01:14:43;;;;;;;4.23;2.05;;;;;;;18.09;83.64;96407.16;128143;1092;25371;-90
2021/07/26 01:17:14;;;;;;;2.35;1.70;;;;;;;18.08;83.81;96389.50;128053;1092;24256;-92
2021/07/26 01:19:46;;;;;;;2.53;1.65;;;;;;;18.04;83.92;96385.92;128046;1092;28421;-91
2021/07/26 01:22:17;;;;;;;2.93;1.85;;;;;;;18.00;84.06;96352.80;128071;1092;25540;-91
2021/07/26 01:24:48;;;;;;;2.45;1.60;;;;;;;17.96;83.98;96365.32;128059;1092;27519;-90
2021/07/26 01:27:19;;;;;;;2.68;2.10;;;;;;;17.96;83.94;96346.55;128116;1092;24651;-91
2021/07/26 01:29:51;;;;;;;3.88;2.35;;;;;;;17.96;84.05;96333.14;128106;1092;25902;-91
2021/07/26 01:32:22;;;;;;;3.63;2.55;;;;;;;17.99;84.12;96319.05;128075;1093;28765;-91
2021/07/26 01:34:53;;;;;;;2.70;2.40;;;;;;;18.01;83.94;96306.09;128078;1093;29816;-92
2021/07/26 01:37:24;;;;;;;4.25;2.78;;;;;;;18.02;83.87;96291.59;128062;1093;26868;-91
2021/07/26 01:39:56;;;;;;;6.23;3.30;;;;;;;18.00;84.18;96293.80;128084;1093;26242;-92
2021/07/26 01:42:27;;;;;;;4.20;2.68;;;;;;;17.92;84.49;96286.65;128061;1093;28746;-91
2021/07/26 01:44:58;;;;;;;2.83;2.20;;;;;;;17.85;84.74;96281.03;127920;1093;22893;-91
2021/07/26 01:47:34;;;;;;;5.23;3.00;;;;;;;17.84;84.87;96300.92;127987;1093;28484;-92
2021/07/26 01:50:11;;;;;;;4.58;2.80;;;;;;;17.86;84.95;96285.28;128059;1093;25398;-92
2021/07/26 01:52:42;;;;;;;4.38;2.45;;;;;;;17.88;84.75;96275.03;128041;1093;24000;-92
2021/07/26 01:55:14;;;;;;;4.20;2.70;;;;;;;17.89;84.65;96282.73;128163;1093;25842;-91
2021/07/26 01:57:46;;;;;;;3.03;2.38;;;;;;;17.90;84.56;96264.75;128116;1092;25688;-92
2021/07/26 02:00:18;;;;;;;2.63;2.17;;;;;;;17.94;84.50;96281.73;128091;1093;24087;-91
2021/07/26 02:02:49;;;;;;;3.50;1.65;;;;;;;17.95;84.90;96269.88;128047;1092;26526;-91
2021/07/26 02:05:21;;;;;;;2.63;2.23;;;;;;;17.89;85.15;96272.02;128030;1093;24152;-90
2021/07/26 02:07:52;;;;;;;3.38;1.68;;;;;;;17.86;85.16;96266.51;127955;1092;23366;-90
2021/07/26 02:10:23;;;;;;;3.25;1.80;;;;;;;17.88;85.05;96250.89;127981;1093;24307;-90
2021/07/26 02:12:57;;;;;;;3.48;2.00;;;;;;;17.95;84.69;96259.94;127875;1092;22905;-90
2021/07/26 02:15:29;;;;;;;3.10;2.23;;;;;;;17.96;84.60;96256.14;127994;1091;24320;-89
2021/07/26 02:18:00;;;;;;;5.38;2.78;;;;;;;17.93;84.83;96256.81;127888;1093;76119;-90
2021/07/26 02:20:31;;;;;;;5.83;2.43;;;;;;;17.95;84.76;96253.80;127887;1092;24144;-90
2021/07/26 02:23:03;;;;;;;5.85;2.88;;;;;;;17.82;84.23;96260.25;128106;1093;26302;-91
2021/07/26 02:25:34;;;;;;;4.80;2.60;;;;;;;17.69;84.75;96268.27;128110;1093;23331;-91
2021/07/26 02:28:07;;;;;;;4.00;2.63;;;;;;;17.68;84.80;96274.75;128111;1092;26818;-90
2021/07/26 02:30:39;;;;;;;3.85;2.70;;;;;;;17.71;85.20;96266.03;128110;1092;23461;-91
2021/07/26 02:33:10;;;;;;;3.78;2.38;;;;;;;17.75;85.05;96245.51;127847;1093;25764;-90
2021/07/26 02:35:41;;;;;;;4.18;2.70;;;;;;;17.66;85.14;96242.10;128128;1093;24212;-90
2021/07/26 02:38:13;;;;;;;5.05;2.65;;;;;;;17.61;85.90;96249.58;128064;1092;22786;-90
2021/07/26 02:40:44;;;;;;;4.10;2.48;;;;;;;17.69;86.43;96257.55;128106;1092;22784;-89
2021/07/26 02:43:15;;;;;;;3.00;2.50;;;;;;;17.77;86.33;96272.77;128070;1093;22783;-88
2021/07/26 02:45:47;;;;;;;3.50;2.70;;;;;;;17.78;86.37;96274.33;128086;1091;22819;-89
2021/07/26 02:48:18;;;;;;;4.53;2.45;;;;;;;17.78;86.24;96277.02;127990;1092;26907;-90
2021/07/26 02:50:50;;;;;;;2.58;2.33;;;;;;;17.85;86.22;96286.39;128014;1093;22784;-91
2021/07/26 02:53:21;;;;;;;3.50;2.27;;;;;;;17.86;86.34;96283.38;128081;1093;32363;-90
2021/07/26 02:55:52;;;;;;;5.25;2.45;;;;;;;17.79;86.36;96286.63;128058;1092;22789;-90
2021/07/26 02:58:24;;;;;;;3.60;2.43;;;;;;;17.75;86.52;96280.36;128114;1092;23894;-90
2021/07/26 03:00:55;;;;;;;9.95;2.70;;;;;;;17.77;86.47;96285.39;128060;1093;25696;-91
2021/07/26 03:03:26;;;;;;;3.40;2.48;;;;;;;17.82;86.44;96276.34;128080;1091;28671;-92
2021/07/26 03:05:57;;;;;;;2.93;2.43;;;;;;;17.87;86.49;96273.44;128089;1093;25865;-91
2021/07/26 03:08:30;;;;;;;2.75;2.38;;;;;;;17.89;86.09;96265.87;128094;1092;23178;-91
2021/07/26 03:11:10;;;;;;;4.15;2.63;;;;;;;17.91;86.10;96269.77;128067;1093;24540;-92
2021/07/26 03:13:42;;;;;;;3.35;2.80;;;;;;;17.93;86.07;96261.39;128108;1093;25213;-90
2021/07/26 03:16:15;;;;;;;2.50;2.30;;;;;;;17.97;86.04;96260.38;128145;1093;23427;-91
2021/07/26 03:18:46;;;;;;;3.53;2.53;;;;;;;17.94;85.93;96265.64;128116;1092;24368;-91
2021/07/26 03:21:18;;;;;;;4.80;2.85;;;;;;;17.88;85.89;96272.34;127951;1093;27087;-90
2021/07/26 03:23:51;;;;;;;3.75;2.75;;;;;;;17.89;86.08;96281.95;128129;1093;24422;-91
2021/07/26 03:26:23;;;;;;;3.57;2.60;;;;;;;17.86;86.03;96282.59;128072;1092;28537;-90
2021/07/26 03:28:54;;;;;;;4.37;2.60;;;;;;;17.86;86.10;96278.02;127978;1092;23241;-90
2021/07/26 03:31:25;;;;;;;3.08;2.23;;;;;;;17.86;86.08;96267.29;128064;1092;25360;-91
2021/07/26 03:33:58;;;;;;;2.63;2.00;;;;;;;17.92;86.20;96265.20;128119;1093;22806;-91
2021/07/26 03:36:29;;;;;;;3.20;2.35;;;;;;;17.97;86.25;96254.23;128049;1093;26646;-91
2021/07/26 03:39:00;;;;;;;3.50;2.53;;;;;;;17.99;86.37;96258.14;128082;1093;25737;-91
2021/07/26 03:41:31;;;;;;;4.65;2.25;;;;;;;17.93;86.11;96248.77;128064;1092;23833;-91
2021/07/26 03:44:02;;;;;;;4.40;2.43;;;;;;;17.83;86.25;96248.41;128075;1092;33234;-91
2021/07/26 03:46:34;;;;;;;3.03;2.20;;;;;;;17.76;86.27;96247.07;128078;1093;25138;-91
2021/07/26 03:49:05;;;;;;;2.28;1.83;;;;;;;17.71;86.04;96236.55;128070;1092;24992;-90
2021/07/26 03:51:36;;;;;;;3.00;2.20;;;;;;;17.77;85.77;96237.91;128076;1093;25313;-90
2021/07/26 03:54:07;;;;;;;2.00;1.63;;;;;;;17.83;85.51;96237.69;128088;1093;28258;-91
2021/07/26 03:56:39;;;;;;;3.80;1.50;;;;;;;17.92;84.80;96238.38;127999;1093;26977;-90
2021/07/26 03:59:10;;;;;;;2.43;1.70;;;;;;;18.00;84.33;96235.56;128162;1093;25862;-91
2021/07/26 04:01:42;;;;;;;3.58;1.80;;;;;;;18.08;83.69;96241.95;128115;1092;24302;-91
2021/07/26 04:04:13;;;;;;;2.55;1.45;;;;;;;18.17;82.80;96242.64;128140;1092;23122;-90
2021/07/26 04:06:49;;;;;;;2.30;1.75;;;;;;;18.26;82.72;96256.70;128161;1092;22820;-91
2021/07/26 04:09:22;;;;;;;2.23;1.55;;;;;;;18.31;82.75;96256.50;128091;1093;26235;-91
2021/07/26 04:11:59;;;;;;;3.95;1.98;;;;;;;18.26;82.44;96248.66;128093;1092;27170;-91
2021/07/26 04:14:34;;;;;;;2.17;1.90;;;;;;;18.24;82.69;96258.95;127907;1093;24218;-91
2021/07/26 04:17:06;;;;;;;2.05;1.80;;;;;;;18.15;83.01;96250.21;127941;1093;24242;-91
2021/07/26 04:19:37;;;;;;;2.93;1.98;;;;;;;18.18;83.64;96254.94;127915;1093;26245;-92
2021/07/26 04:22:09;;;;;;;2.55;2.33;;;;;;;18.23;84.01;96261.97;128090;1092;23636;-91
2021/07/26 04:24:40;;;;;;;3.35;2.25;;;;;;;18.23;84.07;96249.33;128121;1092;23168;-91
2021/07/26 04:27:11;;;;;;;4.15;2.33;;;;;;;18.24;83.69;96240.16;128140;1092;23510;-90
2021/07/26 04:29:42;;;;;;;3.45;2.43;;;;;;;18.30;82.92;96246.89;128181;1092;25573;-90
2021/07/26 04:32:14;;;;;;;2.03;1.83;;;;;;;18.40;82.17;96243.73;128160;1093;22783;-91
2021/07/26 04:34:45;;;;;;;2.60;2.20;;;;;;;18.50;81.64;96252.45;128105;1092;25983;-90
2021/07/26 04:37:16;;;;;;;2.60;1.88;;;;;;;18.55;81.28;96239.57;128068;1092;24836;-89
2021/07/26 04:39:47;;;;;;;3.90;2.40;;;;;;;18.60;80.91;96243.94;128019;1093;25271;-91
2021/07/26 04:42:18;;;;;;;2.55;2.00;;;;;;;18.65;80.51;96232.98;128111;1092;28267;-90
2021/07/26 04:44:50;;;;;;;3.10;2.33;;;;;;;18.68;80.29;96221.56;128093;1093;24174;-90
2021/07/26 04:47:21;;;;;;;3.18;2.38;;;;;;;18.73;80.39;96237.46;128057;1093;24108;-90
2021/07/26 04:49:52;;;;;;;2.95;2.28;;;;;;;18.75;80.17;96234.44;128045;1092;22874;-89
2021/07/26 04:52:23;;;;;;;2.70;2.23;;;;;;;18.80;80.02;96226.91;128104;1092;27683;-89
2021/07/26 04:54:55;;;;;;;3.60;2.40;;;;;;;18.81;79.99;96225.78;128112;1093;22870;-89
2021/07/26 04:57:26;;;;;;;3.50;2.43;;;;;;;18.82;79.92;96230.03;128067;1093;23928;-89
2021/07/26 04:59:57;;;;;;;3.80;2.60;;;;;;;18.84;79.69;96230.47;128064;1093;23228;-89
2021/07/26 05:02:28;;;;;;;4.60;2.88;;;;;;;18.87;79.60;96212.91;127745;1092;24105;-90
2021/07/26 05:05:01;;;;;;;3.73;2.93;;;;;;;18.87;79.29;96235.19;127948;1093;22921;-90
2021/07/26 05:07:33;;;;;;;4.35;2.50;;;;;;;18.92;79.35;96234.94;128187;1093;22874;-90
2021/07/26 05:10:04;;;;;;;3.98;2.28;;;;;;;18.98;79.19;96236.25;129033;1092;24733;-91
2021/07/26 05:12:36;;;;;;;3.73;2.60;;;;;;;19.05;78.71;96229.52;129293;1093;23570;-91
2021/07/26 05:15:09;;;;;;;5.18;2.80;;;;;;;19.15;78.43;96232.52;128241;1092;24121;-91
2021/07/26 05:17:40;;;;;;;4.70;2.90;;;;;;;19.28;78.64;96243.97;128059;1093;23943;-90
2021/07/26 05:20:13;;;;;;;4.35;3.13;;;;;;;19.42;77.58;96252.41;127995;1092;22786;-91
2021/07/26 05:22:45;;;;;;;5.90;2.93;;;;;;;19.60;77.37;96254.84;127983;1093;22786;-90
2021/07/26 05:25:16;;;;;;;3.43;3.00;;;;;;;19.90;76.71;96269.45;127993;1093;24415;-89
2021/07/26 05:27:48;;;;;;;4.68;2.90;;;;;;;20.48;77.76;96279.70;128098;1092;24574;-89
2021/07/26 05:30:19;;;;;;;3.35;2.70;;;;;;;21.28;78.64;96296.11;127900;1092;22925;-88
2021/07/26 05:32:50;;;;;;;2.63;2.28;;;;;;;22.28;77.98;96299.88;127888;1093;25195;-89
2021/07/26 05:35:22;;;;;;;3.93;2.50;;;;;;;23.74;77.22;96296.47;128006;1092;24389;-90
2021/07/26 05:37:53;;;;;;;3.63;2.53;;;;;;;25.30;73.98;96299.63;127887;1093;23379;-90
2021/07/26 05:40:24;;;;;;;2.65;2.30;;;;;;;25.60;70.73;96310.20;128092;1092;22816;-89
2021/07/26 05:42:56;;;;;;;3.50;2.40;;;;;;;25.72;69.64;96301.73;128078;1092;24274;-89
2021/07/26 05:45:27;;;;;;;2.05;1.88;;;;;;;26.45;68.77;96310.40;127973;1092;22987;-88
2021/07/26 05:47:58;;;;;;;4.23;2.00;;;;;;;27.85;68.72;96308.89;128055;1092;24215;-89
2021/07/26 05:50:30;;;;;;;2.73;1.80;;;;;;;29.38;64.68;96317.77;128073;1092;23388;-89
2021/07/26 05:53:06;;;;;;;2.53;2.05;;;;;;;30.38;61.04;96315.27;128072;1092;23256;-90
2021/07/26 05:55:40;;;;;;;2.93;2.00;;;;;;;31.64;58.42;96322.82;128114;1093;25839;-89
2021/07/26 05:58:12;;;;;;;2.70;2.00;;;;;;;32.55;55.93;96326.72;128135;1093;22933;-88
2021/07/26 06:00:45;;;;;;;2.48;1.78;;;;;;;33.14;53.93;96327.61;128154;1093;23372;-88
2021/07/26 06:03:17;;;;;;;2.48;1.70;;;;;;;33.50;51.93;96336.46;127957;1092;23269;-89
2021/07/26 06:05:48;;;;;;;2.30;1.70;;;;;;;33.75;49.38;96348.70;128008;1093;22786;-88
2021/07/26 06:08:20;;;;;;;3.15;1.73;;;;;;;33.50;46.74;96339.21;128084;1093;23002;-87
2021/07/26 06:10:51;;;;;;;4.90;1.80;;;;;;;32.80;46.30;96350.83;128071;1093;22820;-88
2021/07/26 06:13:22;;;;;;;3.50;2.00;;;;;;;32.90;46.80;96362.75;128088;1092;22787;-89
2021/07/26 06:15:54;;;;;;;2.35;1.65;;;;;;;33.27;46.46;96364.16;128083;1092;22813;-89
2021/07/26 06:18:25;;;;;;;2.03;1.83;;;;;;;34.25;46.50;96367.30;127954;1093;29081;-89
2021/07/26 06:20:56;;;;;;;3.40;1.80;;;;;;;35.14;44.41;96356.19;128073;1092;26248;-89
2021/07/26 06:23:27;;;;;;;3.10;1.60;;;;;;;35.53;43.24;96363.12;128090;1093;23424;-90
2021/07/26 06:25:59;;;;;;;2.83;1.93;;;;;;;35.50;41.66;96366.01;128063;1093;24388;-88
2021/07/26 06:28:30;;;;;;;2.68;1.95;;;;;;;35.72;41.66;96369.52;128073;1092;22865;-89
2021/07/26 06:31:03;;;;;;;2.55;1.85;;;;;;;36.83;40.71;96379.91;128006;1092;26580;-90
2021/07/26 06:33:34;;;;;;;2.30;1.80;;;;;;;36.80;38.98;96378.83;128196;1092;23866;-90
2021/07/26 06:36:06;;;;;;;2.08;1.88;;;;;;;37.03;39.24;96388.55;127975;1092;26442;-89
2021/07/26 06:38:38;;;;;;;2.05;1.83;;;;;;;37.56;38.73;96390.27;128028;1093;25030;-90
2021/07/26 06:41:10;;;;;;;3.43;1.90;;;;;;;37.84;37.41;96394.57;127856;1092;23431;-89
2021/07/26 06:43:41;;;;;;;2.40;1.55;;;;;;;37.48;37.04;96391.83;127967;1093;23014;-90
2021/07/26 06:46:13;;;;;;;3.73;2.10;;;;;;;37.30;36.36;96382.28;128144;1092;26232;-89
2021/07/26 06:48:44;;;;;;;2.25;1.90;;;;;;;37.50;36.70;96392.90;127914;1092;26410;-90
2021/07/26 06:51:15;;;;;;;4.35;1.90;;;;;;;38.17;36.54;96397.44;127914;1093;23253;-87
2021/07/26 06:53:47;;;;;;;4.20;2.10;;;;;;;38.49;33.89;96400.72;127907;1092;24890;-89
2021/07/26 06:56:18;;;;;;;2.75;1.90;;;;;;;39.06;35.40;96395.97;127967;1093;23591;-89
2021/07/26 06:58:50;;;;;;;2.35;2.00;;;;;;;39.71;33.03;96405.39;128077;1092;23871;-89
2021/07/26 07:01:22;;;;;;;2.53;2.00;;;;;;;39.40;32.28;96400.20;128055;1093;23617;-90
2021/07/26 07:03:55;;;;;;;2.60;2.00;;;;;;;38.84;33.58;96396.25;128048;1093;22811;-90
2021/07/26 07:06:27;;;;;;;2.33;1.93;;;;;;;39.04;32.83;96398.45;128096;1093;22828;-89
2021/07/26 07:08:58;;;;;;;2.75;1.75;;;;;;;40.32;34.40;96396.59;127972;1093;22907;-90
2021/07/26 07:11:30;;;;;;;2.08;1.80;;;;;;;42.54;33.58;96396.25;127935;1093;25560;-90
2021/07/26 07:14:01;;;;;;;3.10;1.75;;;;;;;44.10;30.98;96391.33;128056;1093;26727;-90
2021/07/26 07:16:32;;;;;;;2.88;1.85;;;;;;;44.18;29.98;96396.41;128079;1092;23256;-90
2021/07/26 07:19:04;;;;;;;2.58;2.00;;;;;;;43.72;28.63;96403.95;128073;1093;25344;-90
2021/07/26 07:21:36;;;;;;;1.85;1.70;;;;;;;42.71;28.27;96411.05;128093;1093;23271;-90
2021/07/26 07:24:08;;;;;;;2.28;1.73;;;;;;;41.32;28.75;96402.87;128065;1093;25552;-90
2021/07/26 07:26:39;;;;;;;2.70;2.10;;;;;;;41.32;29.87;96408.43;128083;1092;31929;-90
2021/07/26 07:29:10;;;;;;;2.28;2.08;;;;;;;43.11;29.53;96412.06;128135;1092;23642;-90
2021/07/26 07:31:42;;;;;;;2.77;1.93;;;;;;;44.73;28.53;96417.98;128163;1092;24382;-90
2021/07/26 07:34:15;;;;;;;2.65;1.98;;;;;;;46.21;27.09;96407.20;128156;1093;23035;-90
2021/07/26 07:36:47;;;;;;;3.28;2.10;;;;;;;46.61;26.28;96416.06;127768;1092;24097;-89
2021/07/26 07:39:18;;;;;;;2.23;2.03;;;;;;;47.22;24.79;96409.06;128091;1092;22783;-90
2021/07/26 07:41:50;;;;;;;2.60;2.13;;;;;;;46.58;25.16;96417.09;128110;1093;25871;-89
2021/07/26 07:44:21;;;;;;;3.30;2.25;;;;;;;45.22;24.41;96405.16;128094;1092;23591;-88
2021/07/26 07:46:54;;;;;;;2.38;2.03;;;;;;;43.31;24.67;96400.75;128066;1093;23606;-88
2021/07/26 07:49:26;;;;;;;3.05;2.23;;;;;;;40.41;26.51;96402.09;127924;1092;25747;-89
2021/07/26 07:51:58;;;;;;;3.28;2.40;;;;;;;39.70;28.67;96397.55;128117;1092;22766;-89
2021/07/26 07:54:29;;;;;;;2.80;2.60;;;;;;;41.18;27.87;96396.09;128088;1092;23486;-90
2021/07/26 07:57:00;;;;;;;4.05;2.45;;;;;;;41.72;27.54;96407.64;128102;1092;22830;-90
2021/07/26 07:59:32;;;;;;;2.70;2.50;;;;;;;42.32;27.61;96408.72;128010;1093;26234;-90
2021/07/26 08:02:08;;;;;;;3.73;2.98;;;;;;;41.70;26.09;96406.61;128104;1093;22793;-88
2021/07/26 08:04:40;;;;;;;3.23;2.37;;;;;;;41.83;27.31;96411.80;128085;1092;23288;-89
2021/07/26 08:07:12;;;;;;;3.73;2.73;;;;;;;43.18;26.99;96420.71;128018;1092;22793;-89
2021/07/26 08:09:43;;;;;;;3.15;2.65;;;;;;;41.97;26.16;96420.05;128159;1092;23596;-89
2021/07/26 08:12:15;;;;;;;3.03;2.58;;;;;;;41.59;26.72;96418.36;128142;1093;22788;-89
2021/07/26 08:14:46;;;;;;;3.60;2.98;;;;;;;41.02;26.24;96416.13;128053;1093;23559;-88
2021/07/26 08:17:17;;;;;;;3.07;2.77;;;;;;;39.84;28.23;96419.00;128082;1093;22797;-88
2021/07/26 08:19:49;;;;;;;4.80;2.93;;;;;;;38.48;28.14;96424.13;128166;1091;22850;-88
2021/07/26 08:22:20;;;;;;;4.47;3.00;;;;;;;37.38;29.81;96425.00;128072;1093;23550;-89
2021/07/26 08:24:51;;;;;;;4.48;3.20;;;;;;;36.38;30.45;96428.22;128089;1091;22783;-89
2021/07/26 08:27:23;;;;;;;4.00;3.05;;;;;;;34.85;32.26;96427.20;128103;1093;22783;-89
2021/07/26 08:29:54;;;;;;;3.80;3.30;;;;;;;33.39;33.86;96426.67;128065;1092;23813;-91
2021/07/26 08:32:26;;;;;;;5.30;3.53;;;;;;;32.90;34.96;96425.91;128122;1092;25239;-90
2021/07/26 08:34:57;;;;;;;4.80;3.95;;;;;;;32.72;35.71;96434.55;127969;1092;24155;-90
2021/07/26 08:37:32;;;;;;;5.87;3.70;;;;;;;31.98;36.43;96421.25;127899;1093;22956;-90
2021/07/26 08:40:05;;;;;;;5.00;3.48;;;;;;;31.78;38.03;96423.20;128097;1093;22821;-90
2021/07/26 08:42:43;;;;;;;5.78;4.28;;;;;;;32.57;38.16;96422.36;128103;1093;26606;-89
2021/07/26 08:45:17;;;;;;;3.80;3.40;;;;;;;33.28;37.53;96423.40;127891;1092;22819;-88
2021/07/26 08:47:50;;;;;;;7.57;5.30;;;;;;;32.78;36.77;96428.11;127964;1093;27458;-89
2021/07/26 08:50:22;;;;;;;6.63;5.53;;;;;;;32.25;38.04;96418.33;127992;1091;22803;-89
2021/07/26 08:52:55;;;;;;;8.20;5.18;;;;;;;31.73;38.82;96409.98;128036;1093;22826;-90
2021/07/26 08:55:29;;;;;;;7.05;5.58;;;;;;;31.16;39.27;96411.77;127908;1093;23072;-90
2021/07/26 08:58:01;;;;;;;7.73;5.80;;;;;;;30.53;39.87;96419.01;128099;1093;23074;-88
2021/07/26 09:00:32;;;;;;;7.55;5.70;;;;;;;29.86;41.55;96415.98;128102;1093;22806;-89
2021/07/26 09:03:05;;;;;;;8.28;6.03;;;;;;;29.89;42.79;96415.16;128091;1093;24450;-88
2021/07/26 09:05:37;;;;;;;6.90;5.48;;;;;;;29.90;42.40;96413.20;128118;1093;22778;-89
2021/07/26 09:08:09;;;;;;;7.48;6.25;;;;;;;29.65;43.29;96410.75;128100;1092;23527;-88
2021/07/26 09:10:45;;;;;;;8.53;6.28;;;;;;;29.99;43.77;96414.27;128142;1091;26254;-89
2021/07/26 09:13:35;;;;;;;7.90;6.20;;;;;;;29.85;43.33;96409.74;128103;1092;22922;-88
2021/07/26 09:16:21;;;;;;;7.93;5.97;;;;;;;29.83;43.37;96408.58;127755;1092;22698;-88
2021/07/26 09:19:06;;;;;;;7.95;6.50;;;;;;;29.38;43.42;96402.42;128102;1093;22876;-88
2021/07/26 09:21:56;;;;;;;9.00;6.10;;;;;;;28.81;44.99;96414.61;128077;1092;23176;-89
2021/07/26 09:24:28;;;;;;;7.85;6.15;;;;;;;28.75;45.34;96402.59;128072;1093;24907;-88
2021/07/26 09:27:13;;;;;;;8.33;6.98;;;;;;;28.64;46.36;96413.57;128066;1093;22806;-87
2021/07/26 09:29:44;;;;;;;7.88;6.53;;;;;;;28.69;45.93;96412.36;128138;1092;23517;-88
2021/07/26 09:32:16;;;;;;;8.15;6.40;;;;;;;28.64;46.36;96410.06;128197;1093;22881;-86
2021/07/26 09:34:50;;;;;;;8.48;6.63;;;;;;;28.48;46.98;96417.98;128036;1092;24420;-90
2021/07/26 09:37:22;;;;;;;7.73;6.18;;;;;;;28.25;47.61;96411.06;128103;1092;37016;-88
2021/07/26 09:39:54;;;;;;;7.28;5.50;;;;;;;28.01;49.70;96414.69;127933;1092;22807;-89
2021/07/26 09:42:28;;;;;;;6.15;5.00;;;;;;;27.53;50.65;96409.78;127914;1093;22789;-89
2021/07/26 09:45:20;;;;;;;6.35;5.03;;;;;;;27.33;50.80;96416.84;127905;1093;22997;-89
2021/07/26 09:48:13;;;;;;;7.15;5.15;;;;;;;27.65;51.35;96412.12;128067;1093;22792;-89
2021/07/26 09:50:46;;;;;;;8.80;6.40;;;;;;;27.89;50.33;96426.05;127821;1092;22795;-89
2021/07/26 09:53:21;;;;;;;9.28;6.15;;;;;;;28.10;51.07;96436.84;127891;1093;22948;-87
2021/07/26 09:55:54;;;;;;;9.35;6.00;;;;;;;27.99;50.30;96428.71;128076;1092;22820;-88
2021/07/26 09:58:38;;;;;;;7.68;5.98;;;;;;;28.05;50.39;96426.36;128073;1093;22922;-90
2021/07/26 10:01:12;;;;;;;7.73;5.50;;;;;;;28.15;50.31;96436.42;127905;1093;22880;-89
2021/07/26 10:03:45;;;;;;;8.35;5.98;;;;;;;27.90;50.58;96441.22;128300;1092;22768;-89
2021/07/26 10:06:18;;;;;;;9.38;6.75;;;;;;;28.02;50.64;96446.23;128092;1093;22861;-88
2021/07/26 10:08:51;;;;;;;6.83;5.43;;;;;;;27.88;49.04;96443.57;128095;1093;25365;-89
2021/07/26 10:11:23;;;;;;;12.20;6.78;;;;;;;27.59;49.30;96432.73;128106;1093;22797;-90
2021/07/26 10:13:56;;;;;;;7.13;5.58;;;;;;;27.45;50.77;96440.94;127874;1093;22925;-89
2021/07/26 10:16:27;;;;;;;10.23;6.20;;;;;;;27.31;50.94;96449.10;128014;1093;28319;-89
2021/07/26 10:18:58;;;;;;;9.28;6.20;;;;;;;27.41;51.08;96445.59;128099;1092;22767;-89
2021/07/26 10:21:30;;;;;;;7.75;6.13;;;;;;;27.35;51.33;96447.95;128091;1092;23686;-88
2021/07/26 10:24:07;;;;;;;8.70;6.83;;;;;;;27.19;50.65;96442.92;128059;1093;22858;-88
2021/07/26 10:26:43;;;;;;;9.53;7.20;;;;;;;27.08;51.31;96435.92;128072;1092;22800;-88
2021/07/26 10:29:15;;;;;;;7.53;6.70;;;;;;;27.12;50.94;96442.91;128152;1091;22789;-89
2021/07/26 10:31:46;;;;;;;10.03;6.50;;;;;;;27.05;50.92;96442.16;128082;1093;22800;-87
2021/07/26 10:34:19;;;;;;;8.10;5.90;;;;;;;27.03;51.30;96442.55;127983;1093;22799;-89
2021/07/26 10:36:56;;;;;;;7.78;6.50;;;;;;;27.03;51.52;96441.77;127912;1093;23399;-88
2021/07/26 10:39:29;;;;;;;7.70;6.23;;;;;;;27.07;52.08;96440.59;127804;1093;24437;-88
2021/07/26 10:42:05;;;;;;;7.18;5.90;;;;;;;27.08;52.69;96444.09;128101;1091;22783;-89
2021/07/26 10:44:52;;;;;;;8.10;5.33;;;;;;;27.06;52.40;96441.76;127998;1092;23192;-88
2021/07/26 10:47:23;;;;;;;6.80;5.60;;;;;;;27.11;52.98;96449.52;127998;1092;23430;-90
2021/07/26 10:50:19;;;;;;;6.63;5.15;;;;;;;26.99;51.53;96441.72;128083;1092;22764;-89
2021/07/26 10:52:51;;;;;;;6.70;4.93;;;;;;;27.00;52.43;96437.83;128102;1092;22912;-87
2021/07/26 10:56:08;;;;;;;7.63;5.60;;;;;;;27.16;52.88;96440.95;128075;1092;22816;-89
2021/07/26 10:59:06;;;;;;;6.88;5.35;;;;;;;26.98;51.08;96437.44;127659;1096;23124;-90
2021/07/26 11:02:04;;;;;;;6.90;4.80;;;;;;;26.90;50.78;96427.74;127943;1092;22794;-89
2021/07/26 11:04:47;;;;;;;6.83;5.23;;;;;;;27.17;51.61;96428.15;128077;1093;22860;-89
2021/07/26 11:07:31;;;;;;;6.57;5.20;;;;;;;27.22;51.51;96441.36;128108;1093;22780;-88
2021/07/26 11:10:02;;;;;;;6.15;4.90;;;;;;;27.08;52.32;96436.70;128799;1093;23158;-89
2021/07/26 11:12:55;;;;;;;6.90;5.70;;;;;;;26.89;52.88;96429.69;129128;1093;23809;-89
2021/07/26 11:15:43;;;;;;;5.75;4.90;;;;;;;26.97;53.74;96437.83;129141;1091;23531;-89
2021/07/26 11:18:40;;;;;;;6.65;5.08;;;;;;;27.15;53.04;96423.07;128225;1092;22910;-89
2021/07/26 11:21:16;;;;;;;5.97;4.93;;;;;;;27.43;52.40;96430.41;128136;1092;23885;-88
2021/07/26 11:23:54;;;;;;;7.45;5.23;;;;;;;27.60;52.13;96426.12;128080;1093;22829;-89
2021/07/26 11:26:32;;;;;;;6.98;4.65;;;;;;;27.48;51.37;96434.70;128110;1093;34925;-89
2021/07/26 11:29:11;;;;;;;6.08;4.15;;;;;;;27.44;51.41;96417.58;128112;1092;22748;-90
2021/07/26 11:31:42;;;;;;;6.95;4.68;;;;;;;27.50;52.13;96426.92;128136;1092;24920;-90
2021/07/26 11:34:15;;;;;;;5.30;4.48;;;;;;;27.74;52.09;96422.61;128022;1093;25586;-90
2021/07/26 11:37:08;;;;;;;5.55;4.25;;;;;;;27.81;52.32;96425.29;128103;1092;24300;-86
2021/07/26 11:39:51;;;;;;;6.48;4.75;;;;;;;27.84;50.60;96426.44;128030;1093;26270;-89
2021/07/26 11:42:26;;;;;;;6.33;4.57;;;;;;;27.87;50.20;96429.17;128088;1093;24416;-88
2021/07/26 11:44:59;;;;;;;5.43;4.45;;;;;;;27.83;50.26;96433.06;128104;1093;25455;-88
2021/07/26 11:47:35;;;;;;;6.40;4.98;;;;;;;27.66;50.43;96440.13;128099;1093;24018;-88
2021/07/26 11:50:09;;;;;;;9.17;4.50;;;;;;;27.72;50.79;96425.70;127931;1093;22946;-89
2021/07/26 11:52:52;;;;;;;6.25;4.50;;;;;;;27.71;50.56;96429.59;128093;1091;22949;-87
2021/07/26 11:55:29;;;;;;;5.98;4.45;;;;;;;27.54;50.96;96438.56;128085;1092;26251;-88
2021/07/26 11:58:02;;;;;;;6.35;4.38;;;;;;;27.66;51.90;96431.95;128114;1093;23844;-87